Time;durP1;ratioP1;P1;durP2;ratioP2;P2;SDS_P1;SDS_P2;PMS_P1;PMS_P2;Temp;Humidity;BMP_temperature;BMP_pressure;BME280_temperature;BME280_humidity;BME280_pressure;Samples;Min_cycle;Max_cycle;Signal;HPM_P1;HPM_P2
2021/12/18 00:04:37;;;;;;;8.43;4.13;;;9.40;99.90;;;;;;10319057;28;83313;-62
2021/12/18 00:09:38;;;;;;;12.38;5.28;;;9.30;99.90;;;;;;10320121;28;82984;-60
2021/12/18 00:14:39;;;;;;;11.43;4.57;;;9.40;99.90;;;;;;10319703;28;83175;-62
2021/12/18 00:19:40;;;;;;;12.80;5.43;;;9.40;99.90;;;;;;10319281;28;83153;-60
2021/12/18 00:24:41;;;;;;;13.70;5.45;;;9.40;99.90;;;;;;10295293;28;83365;-61
2021/12/18 00:29:41;;;;;;;11.07;5.13;;;9.30;99.90;;;;;;10291442;28;83146;-63
2021/12/18 00:34:42;;;;;;;11.35;4.72;;;9.30;99.90;;;;;;10291794;28;83352;-62
2021/12/18 00:39:53;;;;;;;11.52;5.00;;;9.20;99.90;;;;;;10291907;28;83124;-63
2021/12/18 00:44:53;;;;;;;10.75;4.80;;;9.20;99.90;;;;;;10291245;28;82890;-61
2021/12/18 00:49:54;;;;;;;11.63;5.82;;;9.20;99.90;;;;;;10291230;28;83439;-64
2021/12/18 00:54:55;;;;;;;10.15;4.68;;;9.20;99.90;;;;;;10282048;28;83796;-61
2021/12/18 01:00:00;;;;;;;9.52;4.65;;;9.10;99.90;;;;;;10290401;28;83375;-63
2021/12/18 01:05:01;;;;;;;10.52;4.13;;;9.20;99.90;;;;;;10290746;28;83356;-60
2021/12/18 01:10:24;;;;;;;10.82;4.55;;;9.20;99.90;;;;;;10289174;28;82954;-63
2021/12/18 01:15:31;;;;;;;11.40;4.30;;;9.10;99.90;;;;;;10289772;28;83463;-59
2021/12/18 01:25:53;;;;;;;7.85;3.40;;;9.10;99.90;;;;;;10287961;28;83336;-60
2021/12/18 01:30:54;;;;;;;5.65;2.45;;;9.10;99.90;;;;;;10289991;28;83908;-61
2021/12/18 01:35:55;;;;;;;6.47;3.15;;;9.10;99.90;;;;;;10288036;28;83280;-61
2021/12/18 01:40:58;;;;;;;6.53;2.75;;;9.10;99.90;;;;;;10291318;28;82947;-61
2021/12/18 01:56:15;;;;;;;3.70;1.90;;;9.10;99.90;;;;;;10290389;28;84229;-62
2021/12/18 02:01:17;;;;;;;4.32;1.85;;;9.10;99.90;;;;;;10292790;28;83200;-61
2021/12/18 02:06:18;;;;;;;4.55;1.73;;;9.10;99.90;;;;;;10291125;28;82942;-60
2021/12/18 02:21:41;;;;;;;6.40;2.25;;;9.00;99.90;;;;;;10291341;28;82937;-61
2021/12/18 02:26:42;;;;;;;6.13;2.58;;;9.00;99.90;;;;;;10289581;28;83243;-61
2021/12/18 02:31:44;;;;;;;5.20;2.30;;;9.00;99.90;;;;;;10288285;28;83201;-60
2021/12/18 02:36:47;;;;;;;7.80;3.60;;;9.00;99.90;;;;;;10287434;28;83177;-61
2021/12/18 02:47:08;;;;;;;7.15;3.00;;;9.10;99.90;;;;;;10286471;28;82884;-58
2021/12/18 02:52:09;;;;;;;6.70;3.00;;;9.10;99.90;;;;;;10287093;28;83301;-62
2021/12/18 02:57:11;;;;;;;8.18;3.15;;;9.00;99.90;;;;;;10285909;28;82888;-62
2021/12/18 03:02:13;;;;;;;8.65;3.78;;;9.10;99.90;;;;;;10285073;28;83375;-61
2021/12/18 03:07:16;;;;;;;10.88;3.88;;;9.10;99.90;;;;;;10285989;28;83154;-59
2021/12/18 03:28:15;;;;;;;10.85;4.00;;;9.00;99.90;;;;;;10287041;28;83105;-61
2021/12/18 03:33:16;;;;;;;10.57;4.00;;;9.00;99.90;;;;;;10287084;28;83243;-60
2021/12/18 03:38:17;;;;;;;13.38;4.65;;;9.00;99.90;;;;;;10286912;28;84408;-57
2021/12/18 03:43:18;;;;;;;10.10;4.10;;;8.90;99.90;;;;;;10289087;28;82879;-58
2021/12/18 03:48:18;;;;;;;12.68;4.18;;;8.80;99.90;;;;;;10289355;28;82877;-60
2021/12/18 03:53:19;;;;;;;9.75;3.58;;;8.90;99.90;;;;;;10285608;28;83337;-61
2021/12/18 03:58:20;;;;;;;11.05;3.83;;;8.80;99.90;;;;;;10288924;28;83101;-61
2021/12/18 04:03:21;;;;;;;8.43;2.65;;;8.80;99.90;;;;;;10291701;28;85540;-62
2021/12/18 04:08:21;;;;;;;10.57;3.60;;;8.70;99.90;;;;;;10293042;28;82960;-62
2021/12/18 04:13:22;;;;;;;7.28;2.70;;;8.60;99.90;;;;;;10293190;28;83494;-61
2021/12/18 04:18:22;;;;;;;8.70;3.10;;;8.60;99.90;;;;;;10293388;28;82933;-61
2021/12/18 04:23:23;;;;;;;9.90;3.53;;;8.60;99.90;;;;;;10292176;28;83173;-62
2021/12/18 04:28:24;;;;;;;6.80;2.05;;;8.60;99.90;;;;;;10290035;28;85692;-62
2021/12/18 04:33:26;;;;;;;6.10;2.22;;;8.50;99.90;;;;;;10291384;28;83155;-61
2021/12/18 04:38:27;;;;;;;10.48;2.20;;;8.70;99.90;;;;;;10291225;28;83025;-62
2021/12/18 04:43:27;;;;;;;4.53;2.22;;;8.50;99.90;;;;;;10289302;28;84323;-63
2021/12/18 04:48:28;;;;;;;5.55;2.13;;;8.50;99.90;;;;;;10291323;28;83188;-63
2021/12/18 04:53:28;;;;;;;6.95;2.15;;;8.40;99.90;;;;;;10289684;28;82823;-61
2021/12/18 04:58:29;;;;;;;4.30;2.03;;;8.60;99.90;;;;;;10289898;28;82837;-62
2021/12/18 05:03:30;;;;;;;7.45;2.25;;;8.60;99.90;;;;;;10289712;28;83358;-62
2021/12/18 05:08:31;;;;;;;5.15;1.88;;;8.60;99.90;;;;;;10289668;28;83362;-60
2021/12/18 05:13:32;;;;;;;6.60;2.40;;;8.60;99.90;;;;;;10289709;28;83363;-62
2021/12/18 05:18:32;;;;;;;4.47;2.20;;;8.50;99.90;;;;;;10289219;28;83106;-62
2021/12/18 05:23:33;;;;;;;8.25;2.65;;;8.50;99.90;;;;;;10311374;22;83339;-50
2021/12/18 05:28:33;;;;;;;8.95;2.38;;;8.50;99.90;;;;;;10289257;28;83745;-49
2021/12/18 05:33:34;;;;;;;8.85;2.85;;;8.50;99.90;;;;;;10289079;28;84140;-49
2021/12/18 05:38:35;;;;;;;8.25;2.70;;;8.40;99.90;;;;;;10287414;28;84101;-48
2021/12/18 05:43:35;;;;;;;6.45;2.40;;;8.40;99.90;;;;;;10285514;28;84051;-47
2021/12/18 05:48:36;;;;;;;8.30;2.63;;;8.40;99.90;;;;;;10288512;28;83705;-45
2021/12/18 05:53:36;;;;;;;7.50;2.10;;;8.30;99.90;;;;;;10289543;28;85380;-47
2021/12/18 05:58:37;;;;;;;6.35;2.10;;;8.40;99.90;;;;;;10285385;28;83778;-49
2021/12/18 06:03:39;;;;;;;4.50;1.83;;;8.30;99.90;;;;;;10288729;28;83689;-49
2021/12/18 06:08:42;;;;;;;5.28;1.98;;;8.30;99.90;;;;;;10286916;28;83784;-51
2021/12/18 06:13:45;;;;;;;5.45;1.98;;;8.30;99.90;;;;;;10295351;28;83155;-49
2021/12/18 06:18:49;;;;;;;4.20;1.92;;;8.30;99.90;;;;;;10269655;28;83758;-50
2021/12/18 06:23:53;;;;;;;4.97;1.73;;;8.30;99.90;;;;;;10285323;28;84278;-50
2021/12/18 06:28:54;;;;;;;3.65;1.15;;;8.10;99.90;;;;;;10287564;28;83669;-46
2021/12/18 06:33:55;;;;;;;4.28;1.40;;;8.10;99.90;;;;;;10287763;28;83858;-46
2021/12/18 06:38:56;;;;;;;4.35;1.50;;;7.90;99.90;;;;;;10287691;28;83760;-46
2021/12/18 06:43:57;;;;;;;3.60;1.42;;;7.80;99.90;;;;;;10286825;28;83786;-48
2021/12/18 06:48:57;;;;;;;5.20;1.05;;;7.70;99.90;;;;;;10287477;28;83950;-47
2021/12/18 06:53:58;;;;;;;4.20;1.95;;;7.60;99.90;;;;;;10285333;28;83854;-46
2021/12/18 06:58:58;;;;;;;5.47;1.52;;;7.50;99.90;;;;;;10292600;28;85129;-46
2021/12/18 07:03:59;;;;;;;3.22;1.42;;;7.50;99.90;;;;;;10282864;28;83835;-45
2021/12/18 07:09:00;;;;;;;5.25;1.50;;;7.60;99.90;;;;;;10286658;28;83828;-47
2021/12/18 07:14:00;;;;;;;3.40;1.42;;;7.50;99.90;;;;;;10278898;28;83749;-49
2021/12/18 07:19:01;;;;;;;5.47;2.30;;;7.50;99.90;;;;;;10288506;28;83889;-48
2021/12/18 07:24:02;;;;;;;4.97;1.85;;;7.50;99.90;;;;;;10280285;28;92332;-52
2021/12/18 07:29:02;;;;;;;4.78;2.13;;;7.50;99.90;;;;;;10286895;28;82888;-50
2021/12/18 07:34:03;;;;;;;4.25;1.60;;;7.50;99.90;;;;;;10290432;28;83812;-49
2021/12/18 07:39:04;;;;;;;4.63;1.73;;;7.60;99.90;;;;;;10293167;28;84035;-56
2021/12/18 07:44:06;;;;;;;4.05;1.55;;;7.60;99.90;;;;;;10293648;28;84237;-58
2021/12/18 07:49:08;;;;;;;3.95;1.42;;;7.60;99.90;;;;;;10292315;28;83297;-51
2021/12/18 07:54:09;;;;;;;4.70;1.40;;;7.50;99.90;;;;;;10291724;28;84584;-49
2021/12/18 07:59:09;;;;;;;3.05;1.33;;;7.50;99.90;;;;;;10292504;28;84212;-48
2021/12/18 08:04:10;;;;;;;4.88;1.38;;;7.50;99.90;;;;;;10292355;28;83988;-47
2021/12/18 08:09:10;;;;;;;3.95;1.40;;;7.50;99.90;;;;;;10292384;28;83724;-49
2021/12/18 08:14:11;;;;;;;3.97;1.45;;;7.50;99.90;;;;;;10290326;28;85074;-50
2021/12/18 08:19:12;;;;;;;4.47;1.83;;;7.40;99.90;;;;;;10288582;28;84154;-47
2021/12/18 08:24:12;;;;;;;3.13;1.20;;;7.40;99.90;;;;;;10290644;28;84306;-47
2021/12/18 08:29:13;;;;;;;3.67;1.27;;;7.40;99.90;;;;;;10325564;28;84909;-49
2021/12/18 08:34:14;;;;;;;2.20;0.90;;;7.50;99.90;;;;;;10291277;28;83755;-48
2021/12/18 08:39:15;;;;;;;2.65;0.90;;;7.30;99.90;;;;;;10289393;28;83869;-48
2021/12/18 08:44:16;;;;;;;1.63;0.60;;;7.40;99.90;;;;;;10291182;28;83968;-46
2021/12/18 08:49:18;;;;;;;2.50;1.17;;;7.50;99.90;;;;;;10291374;28;83880;-48
2021/12/18 08:54:18;;;;;;;3.95;1.40;;;7.50;99.90;;;;;;10291258;28;83758;-48
2021/12/18 08:59:19;;;;;;;3.45;1.00;;;7.50;99.90;;;;;;10290802;28;83858;-48
2021/12/18 09:04:19;;;;;;;3.22;1.27;;;7.50;99.90;;;;;;10289621;28;86303;-49
2021/12/18 09:09:21;;;;;;;3.25;1.27;;;7.50;99.90;;;;;;10288685;28;86334;-47
2021/12/18 09:14:23;;;;;;;3.13;1.08;;;7.50;99.90;;;;;;10290243;28;84318;-47
2021/12/18 09:19:23;;;;;;;3.88;1.27;;;7.50;99.90;;;;;;10290268;28;84167;-47
2021/12/18 09:24:24;;;;;;;4.45;1.52;;;7.50;99.90;;;;;;10290500;28;83815;-48
2021/12/18 09:29:25;;;;;;;3.35;1.02;;;7.50;99.90;;;;;;10290530;28;84002;-47
2021/12/18 09:34:28;;;;;;;4.15;1.35;;;7.60;99.90;;;;;;10290134;28;83762;-50
2021/12/18 09:39:28;;;;;;;3.35;1.15;;;7.50;99.90;;;;;;10288492;28;84301;-47
2021/12/18 09:44:34;;;;;;;1.02;0.80;;;7.50;99.90;;;;;;10289388;28;85156;-48
2021/12/18 09:49:35;;;;;;;1.83;0.63;;;7.50;99.90;;;;;;10289267;28;84285;-48
2021/12/18 09:54:36;;;;;;;1.75;0.80;;;7.60;99.90;;;;;;10288564;28;84126;-47
2021/12/18 09:59:37;;;;;;;4.07;1.20;;;7.50;99.90;;;;;;10289525;28;83720;-49
2021/12/18 10:04:38;;;;;;;4.32;1.08;;;7.30;99.90;;;;;;10289344;28;84261;-46
2021/12/18 10:09:39;;;;;;;3.42;1.38;;;7.30;99.90;;;;;;10287147;28;84337;-46
2021/12/18 10:14:42;;;;;;;3.53;1.05;;;7.20;99.90;;;;;;10286841;28;84276;-51
2021/12/18 10:19:43;;;;;;;5.28;1.42;;;7.30;99.90;;;;;;10288250;28;83301;-52
2021/12/18 10:24:46;;;;;;;4.93;1.17;;;7.40;99.90;;;;;;10287658;28;83400;-49
2021/12/18 10:29:49;;;;;;;1.63;0.60;;;7.50;99.90;;;;;;10286231;28;85938;-49
2021/12/18 10:34:56;;;;;;;2.05;0.73;;;7.30;99.90;;;;;;10288115;28;84121;-48
2021/12/18 10:39:58;;;;;;;1.20;0.70;;;7.30;99.90;;;;;;10288677;28;83720;-49
2021/12/18 10:45:10;;;;;;;2.38;1.30;;;7.30;99.90;;;;;;10287951;28;83776;-48
2021/12/18 10:50:18;;;;;;;1.42;0.70;;;7.40;99.90;;;;;;10286204;28;84461;-51
2021/12/18 10:55:26;;;;;;;1.77;0.82;;;7.40;99.90;;;;;;10280490;28;83535;-48
2021/12/18 11:00:37;;;;;;;1.50;0.70;;;7.50;99.90;;;;;;10323139;28;84042;-51
2021/12/18 11:05:38;;;;;;;1.85;0.70;;;7.60;99.90;;;;;;10325060;28;83496;-52
2021/12/18 11:10:43;;;;;;;2.95;0.90;;;7.60;99.90;;;;;;10323184;28;85226;-52
2021/12/18 11:15:43;;;;;;;1.42;0.70;;;7.60;99.90;;;;;;10327948;28;84154;-48
2021/12/18 11:20:48;;;;;;;2.97;1.02;;;7.60;99.90;;;;;;10327688;28;83587;-50
2021/12/18 11:25:54;;;;;;;2.20;0.68;;;7.70;99.90;;;;;;10320378;22;84495;-48
2021/12/18 11:30:55;;;;;;;2.35;0.75;;;7.60;99.90;;;;;;10285796;28;84182;-49
2021/12/18 11:35:57;;;;;;;2.50;0.90;;;7.70;99.90;;;;;;10300501;28;83830;-51
2021/12/18 11:40:58;;;;;;;1.75;0.80;;;7.80;99.90;;;;;;10285892;28;83322;-55
2021/12/18 11:45:59;;;;;;;1.52;0.57;;;7.80;99.90;;;;;;10285682;28;84248;-53
2021/12/18 11:51:12;;;;;;;1.83;0.70;;;7.80;99.90;;;;;;10285261;28;84596;-54
2021/12/18 11:56:14;;;;;;;2.53;1.00;;;7.80;99.90;;;;;;10285466;28;83253;-57
2021/12/18 12:01:25;;;;;;;2.22;0.95;;;8.10;99.90;;;;;;10286134;28;83354;-46
2021/12/18 12:06:35;;;;;;;2.13;1.08;;;8.00;99.90;;;;;;10282929;28;85415;-50
2021/12/18 12:11:58;;;;;;;1.25;0.70;;;8.00;99.90;;;;;;10284371;28;84293;-53
2021/12/18 12:17:08;;;;;;;2.78;1.10;;;8.10;99.90;;;;;;10267147;28;85560;-53
2021/12/18 12:22:30;;;;;;;2.50;1.30;;;8.00;99.90;;;;;;10291990;28;83282;-55
2021/12/18 12:27:38;;;;;;;1.90;0.88;;;8.00;99.90;;;;;;10291089;28;83311;-54
2021/12/18 12:32:53;;;;;;;1.83;0.93;;;8.10;99.90;;;;;;10290720;28;84168;-57
2021/12/18 12:37:55;;;;;;;2.60;1.00;;;8.10;99.90;;;;;;10288353;28;84125;-45
2021/12/18 12:43:16;;;;;;;2.40;1.27;;;8.00;99.90;;;;;;10288645;28;84566;-55
2021/12/18 12:48:18;;;;;;;3.72;1.50;;;8.20;99.90;;;;;;10294497;28;83508;-49
2021/12/18 12:53:19;;;;;;;2.65;1.08;;;8.30;99.90;;;;;;10309232;28;86072;-46
2021/12/18 12:58:25;;;;;;;2.13;1.00;;;8.20;99.90;;;;;;10281513;28;84923;-52
2021/12/18 13:03:53;;;;;;;3.35;1.10;;;8.20;99.90;;;;;;10301373;28;83500;-49
2021/12/18 13:08:53;;;;;;;4.50;1.75;;;8.20;99.90;;;;;;10290534;28;83803;-47
2021/12/18 13:13:54;;;;;;;4.05;1.83;;;8.40;99.90;;;;;;10286672;28;84073;-45
2021/12/18 13:18:58;;;;;;;2.80;1.58;;;8.30;99.90;;;;;;10293299;28;84018;-55
2021/12/18 13:24:06;;;;;;;4.65;2.15;;;8.20;99.90;;;;;;10299144;28;83558;-59
2021/12/18 13:29:12;;;;;;;5.97;2.50;;;8.20;99.90;;;;;;10299113;28;84169;-49
2021/12/18 13:34:18;;;;;;;3.40;1.88;;;8.20;99.90;;;;;;10298306;28;83722;-49
2021/12/18 13:39:29;;;;;;;7.38;2.60;;;8.20;99.90;;;;;;10307815;28;83994;-50
2021/12/18 13:44:41;;;;;;;7.07;2.72;;;8.30;99.90;;;;;;10293874;28;84204;-50
2021/12/18 13:49:42;;;;;;;5.72;2.38;;;8.20;99.90;;;;;;10292633;28;84533;-47
2021/12/18 13:54:43;;;;;;;4.15;2.10;;;8.10;99.90;;;;;;10289571;28;83726;-49
2021/12/18 13:59:56;;;;;;;9.52;3.75;;;8.20;99.90;;;;;;10296273;28;87499;-48
2021/12/18 14:04:57;;;;;;;6.95;3.00;;;8.20;99.90;;;;;;10302629;28;83689;-47
2021/12/18 14:09:58;;;;;;;9.35;3.25;;;8.20;99.90;;;;;;10287474;28;83938;-50
2021/12/18 14:15:00;;;;;;;6.72;3.08;;;8.10;99.90;;;;;;10281873;28;84194;-48
2021/12/18 14:20:13;;;;;;;6.25;2.65;;;8.20;99.90;;;;;;10280548;28;84892;-56
2021/12/18 14:25:16;;;;;;;9.23;2.53;;;8.30;99.90;;;;;;10284395;28;83337;-47
2021/12/18 14:30:21;;;;;;;4.60;2.15;;;8.20;99.90;;;;;;10299577;28;83955;-52
2021/12/18 14:35:22;;;;;;;3.83;2.40;;;8.20;99.90;;;;;;10272031;28;85210;-46
2021/12/18 14:40:25;;;;;;;5.65;2.22;;;8.10;99.90;;;;;;10289361;28;84103;-47
2021/12/18 14:45:29;;;;;;;3.67;2.10;;;8.10;99.90;;;;;;10297209;28;83907;-48
2021/12/18 14:50:38;;;;;;;4.78;1.90;;;8.20;99.90;;;;;;10300237;28;84026;-50
2021/12/18 14:55:42;;;;;;;5.00;2.08;;;8.30;99.90;;;;;;10304458;28;85555;-53
2021/12/18 15:00:58;;;;;;;4.75;2.30;;;8.30;99.90;;;;;;10327291;28;83936;-55
2021/12/18 15:06:17;;;;;;;5.72;2.38;;;8.30;99.90;;;;;;10326525;28;84079;-52
2021/12/18 15:11:22;;;;;;;5.55;2.63;;;8.30;99.90;;;;;;10327370;28;83325;-51
2021/12/18 15:16:30;;;;;;;6.53;2.55;;;8.30;99.90;;;;;;10305870;28;84118;-51
2021/12/18 15:21:33;;;;;;;6.18;2.80;;;8.30;99.90;;;;;;10285435;28;84170;-48
2021/12/18 15:26:35;;;;;;;5.97;3.00;;;8.30;99.90;;;;;;10291465;28;84619;-48
2021/12/18 15:31:36;;;;;;;7.32;3.28;;;8.40;99.90;;;;;;10301290;28;84192;-47
2021/12/18 15:36:39;;;;;;;5.55;2.60;;;8.40;99.90;;;;;;10324946;28;83730;-49
2021/12/18 15:41:42;;;;;;;6.38;3.05;;;8.40;99.90;;;;;;10292907;28;83518;-49
2021/12/18 15:46:44;;;;;;;6.93;3.50;;;8.50;99.90;;;;;;10283622;28;83817;-50
2021/12/18 15:51:45;;;;;;;5.10;2.83;;;8.50;99.90;;;;;;10283609;28;85235;-45
2021/12/18 15:56:46;;;;;;;5.80;3.25;;;8.40;99.90;;;;;;10290120;28;83854;-46
2021/12/18 16:01:47;;;;;;;6.90;3.45;;;8.50;99.90;;;;;;10284442;28;83961;-52
2021/12/18 16:06:47;;;;;;;6.70;3.28;;;8.50;99.90;;;;;;10292634;28;84967;-55
2021/12/18 16:11:48;;;;;;;10.18;3.42;;;8.40;99.90;;;;;;10296233;28;83549;-51
2021/12/18 16:16:49;;;;;;;7.22;3.78;;;8.40;99.90;;;;;;10285829;28;83380;-49
2021/12/18 16:21:50;;;;;;;6.93;3.75;;;8.40;99.90;;;;;;10286992;28;84386;-49
2021/12/18 16:26:51;;;;;;;7.68;4.05;;;8.40;99.90;;;;;;10290235;28;84152;-51
2021/12/18 16:31:52;;;;;;;8.32;3.42;;;8.50;99.90;;;;;;10292058;28;83281;-48
2021/12/18 16:36:55;;;;;;;6.82;3.30;;;8.40;99.90;;;;;;10291028;28;83875;-49
2021/12/18 16:41:56;;;;;;;5.88;3.13;;;8.40;99.90;;;;;;10291274;28;83971;-48
2021/12/18 16:46:57;;;;;;;6.28;3.63;;;8.40;99.90;;;;;;10290320;28;84081;-47
2021/12/18 16:51:58;;;;;;;7.05;4.07;;;8.50;99.90;;;;;;10290817;28;84095;-51
2021/12/18 16:56:58;;;;;;;7.57;3.88;;;8.40;99.90;;;;;;10288671;28;85582;-47
2021/12/18 17:01:59;;;;;;;5.97;3.92;;;8.30;99.90;;;;;;10291153;28;84406;-51
2021/12/18 17:07:02;;;;;;;9.55;3.80;;;8.20;99.90;;;;;;10288883;28;84311;-47
2021/12/18 17:12:03;;;;;;;6.40;3.53;;;8.30;99.90;;;;;;10289952;28;84233;-51
2021/12/18 17:17:05;;;;;;;7.38;3.95;;;8.30;99.90;;;;;;10300878;28;84833;-52
2021/12/18 17:22:05;;;;;;;9.70;4.40;;;8.30;99.90;;;;;;10330792;28;84228;-51
2021/12/18 17:27:06;;;;;;;8.07;4.05;;;8.30;99.90;;;;;;10311258;22;84221;-57
2021/12/18 17:32:09;;;;;;;7.45;4.25;;;8.30;99.90;;;;;;10265685;28;84347;-54
2021/12/18 17:37:09;;;;;;;9.85;4.93;;;8.20;99.90;;;;;;10269490;28;86185;-54
2021/12/18 17:42:11;;;;;;;8.25;4.22;;;8.20;99.90;;;;;;10249848;28;84007;-56
2021/12/18 17:47:12;;;;;;;12.52;4.20;;;8.30;99.90;;;;;;10248289;28;85829;-56
2021/12/18 17:52:13;;;;;;;9.80;4.75;;;8.40;99.90;;;;;;10249304;28;84085;-54
2021/12/18 17:57:14;;;;;;;11.68;4.75;;;8.30;99.90;;;;;;10250823;28;83336;-51
2021/12/18 18:02:14;;;;;;;11.30;5.68;;;8.30;99.90;;;;;;10280855;28;83390;-55
2021/12/18 18:07:16;;;;;;;12.50;5.53;;;8.30;99.90;;;;;;10289074;28;83407;-52
2021/12/18 18:12:16;;;;;;;12.30;6.07;;;8.30;99.90;;;;;;10288621;28;83323;-52
2021/12/18 18:17:17;;;;;;;11.30;5.20;;;8.30;99.90;;;;;;10268597;28;83939;-52
2021/12/18 18:22:18;;;;;;;12.88;6.03;;;8.30;99.90;;;;;;10262765;28;84114;-53
2021/12/18 18:27:20;;;;;;;14.27;6.53;;;8.30;99.90;;;;;;10260027;28;85445;-57
2021/12/18 18:32:21;;;;;;;15.20;6.55;;;8.30;99.90;;;;;;10226463;28;84225;-60
2021/12/18 18:37:21;;;;;;;11.18;5.40;;;8.30;99.90;;;;;;10218312;28;84125;-56
2021/12/18 18:42:22;;;;;;;13.65;6.57;;;8.30;99.90;;;;;;10267104;28;83934;-55
2021/12/18 18:47:26;;;;;;;14.15;6.25;;;8.40;99.90;;;;;;10268861;28;83919;-53
2021/12/18 18:52:27;;;;;;;15.35;6.22;;;8.40;99.90;;;;;;10229251;28;83293;-56
2021/12/18 18:57:27;;;;;;;17.48;6.15;;;8.50;99.90;;;;;;10229993;28;84502;-52
2021/12/18 19:02:29;;;;;;;15.85;7.13;;;8.40;99.90;;;;;;10239931;28;84304;-57
2021/12/18 19:07:30;;;;;;;14.73;6.70;;;8.50;99.90;;;;;;10215127;28;83975;-55
2021/12/18 19:12:31;;;;;;;13.70;6.82;;;8.40;99.90;;;;;;10222109;28;83511;-58
2021/12/18 19:17:32;;;;;;;16.38;7.35;;;8.50;99.90;;;;;;10237563;28;83251;-51
2021/12/18 19:22:34;;;;;;;14.43;7.25;;;8.40;99.90;;;;;;10244642;28;86153;-52
2021/12/18 19:27:40;;;;;;;14.98;6.75;;;8.50;99.90;;;;;;10208659;28;83417;-57
2021/12/18 19:32:41;;;;;;;13.50;6.85;;;8.50;99.90;;;;;;10235468;28;84479;-54
2021/12/18 19:37:42;;;;;;;16.30;7.80;;;8.50;99.90;;;;;;10283051;28;83807;-53
2021/12/18 19:42:43;;;;;;;15.73;7.32;;;8.60;99.90;;;;;;10239774;28;83472;-53
2021/12/18 19:47:44;;;;;;;17.30;6.70;;;8.50;99.90;;;;;;10217648;28;84080;-53
2021/12/18 19:52:49;;;;;;;17.73;7.07;;;8.50;99.90;;;;;;10244791;28;83858;-53
2021/12/18 19:57:52;;;;;;;15.73;6.90;;;8.50;99.90;;;;;;10268029;28;85272;-52
2021/12/18 20:07:55;;;;;;;14.35;6.55;;;8.50;99.90;;;;;;10291570;28;84212;-53
2021/12/18 20:12:59;;;;;;;15.07;6.68;;;8.50;99.90;;;;;;10268078;28;84364;-52
2021/12/18 20:18:00;;;;;;;14.02;6.63;;;8.50;99.90;;;;;;10264286;28;83497;-51
2021/12/18 20:23:03;;;;;;;17.05;6.55;;;8.50;99.90;;;;;;10275296;28;85774;-54
2021/12/18 20:28:07;;;;;;;13.77;5.60;;;8.50;99.90;;;;;;10275623;28;83940;-51
2021/12/18 20:33:12;;;;;;;10.85;5.57;;;8.40;99.90;;;;;;10291279;28;84323;-53
2021/12/18 20:38:15;;;;;;;12.85;5.97;;;8.40;99.90;;;;;;10253586;28;83785;-55
2021/12/18 20:43:15;;;;;;;9.80;4.95;;;8.40;99.90;;;;;;10249552;28;84051;-56
2021/12/18 20:48:16;;;;;;;16.52;5.80;;;8.40;99.90;;;;;;10249818;28;84298;-55
2021/12/18 20:53:17;;;;;;;14.15;6.45;;;8.40;99.90;;;;;;10257628;28;83218;-55
2021/12/18 20:58:17;;;;;;;16.15;6.03;;;8.40;99.90;;;;;;10238397;28;84702;-55
2021/12/18 21:03:18;;;;;;;11.15;5.00;;;8.40;99.90;;;;;;10235517;28;84215;-56
2021/12/18 21:08:19;;;;;;;11.57;4.65;;;8.30;99.90;;;;;;10216693;28;83368;-55
2021/12/18 21:13:21;;;;;;;8.90;4.20;;;8.30;99.90;;;;;;10258272;28;86146;-55
2021/12/18 21:18:29;;;;;;;12.85;4.05;;;8.40;99.90;;;;;;10250962;28;83425;-59
2021/12/18 21:23:30;;;;;;;10.23;4.47;;;8.40;99.90;;;;;;10244591;28;84057;-58
2021/12/18 21:28:31;;;;;;;10.77;3.97;;;8.40;99.90;;;;;;10247484;28;83920;-55
2021/12/18 21:33:34;;;;;;;9.52;3.42;;;8.40;99.90;;;;;;10246462;28;83395;-58
2021/12/18 21:38:36;;;;;;;12.45;4.47;;;8.50;99.90;;;;;;10248563;28;84096;-57
2021/12/18 21:43:37;;;;;;;8.30;4.07;;;8.40;99.90;;;;;;10250872;28;83346;-56
2021/12/18 21:48:39;;;;;;;7.13;3.45;;;8.40;99.90;;;;;;10249113;28;84552;-56
2021/12/18 21:53:40;;;;;;;7.03;3.80;;;8.40;99.90;;;;;;10249950;28;84059;-56
2021/12/18 21:58:42;;;;;;;8.82;3.75;;;8.50;99.90;;;;;;10250385;28;83583;-57
2021/12/18 22:03:45;;;;;;;7.97;3.47;;;8.50;99.90;;;;;;10245393;28;85317;-54
2021/12/18 22:08:49;;;;;;;10.65;3.80;;;8.50;99.90;;;;;;10247308;28;84231;-54
2021/12/18 22:13:49;;;;;;;8.30;3.78;;;8.50;99.90;;;;;;10247305;28;83489;-55
2021/12/18 22:18:51;;;;;;;5.93;2.53;;;8.40;99.90;;;;;;10246700;28;84158;-58
2021/12/18 22:23:53;;;;;;;6.85;3.33;;;8.30;99.90;;;;;;10244339;28;83617;-56
2021/12/18 22:28:56;;;;;;;4.55;2.78;;;8.30;99.90;;;;;;10247096;28;83287;-53
2021/12/18 22:33:56;;;;;;;7.25;3.25;;;8.20;99.90;;;;;;10247165;28;84153;-55
2021/12/18 22:38:58;;;;;;;5.38;2.75;;;8.30;99.90;;;;;;10247014;28;84200;-58
2021/12/18 22:43:58;;;;;;;5.95;2.88;;;8.30;99.90;;;;;;10246724;28;83251;-57
2021/12/18 22:48:59;;;;;;;5.07;2.63;;;8.30;99.90;;;;;;10246510;28;85530;-57
2021/12/18 22:53:59;;;;;;;6.43;3.55;;;8.30;99.90;;;;;;10245689;28;83370;-56
2021/12/18 22:59:00;;;;;;;5.05;3.30;;;8.30;99.90;;;;;;10246457;28;83299;-56
2021/12/18 23:04:02;;;;;;;8.13;3.97;;;8.30;99.90;;;;;;10248424;28;84215;-56
2021/12/18 23:09:06;;;;;;;9.20;3.63;;;8.40;99.90;;;;;;10259753;28;84326;-56
2021/12/18 23:29:27;;;;;;;10.77;3.90;;;8.20;99.90;;;;;;10084248;28;83847;-51
2021/12/18 23:34:27;;;;;;;6.25;3.42;;;8.20;99.90;;;;;;10087204;28;84233;-47
2021/12/18 23:39:28;;;;;;;5.97;2.88;;;8.10;99.90;;;;;;10086319;29;84291;-52
2021/12/18 23:49:48;;;;;;;8.50;2.90;;;8.00;99.90;;;;;;10085939;29;83653;-47
2021/12/18 23:54:49;;;;;;;6.85;2.90;;;7.90;99.90;;;;;;10086867;29;83603;-47
2021/12/18 23:59:49;;;;;;;6.43;2.83;;;7.90;99.90;;;;;;10067805;29;85181;-51
